createdAt,value
2017-11-03T00:00:23.659Z,2.19
2017-11-03T00:02:49.901Z,2.16
2017-11-03T00:05:16.179Z,2.18
2017-11-03T00:07:42.527Z,2.21
2017-11-03T00:10:08.743Z,2.18
2017-11-03T00:12:34.996Z,2.17
2017-11-03T00:15:01.207Z,2.19
2017-11-03T00:17:27.422Z,2.20
2017-11-03T00:19:53.688Z,2.18
2017-11-03T00:22:19.896Z,2.22
2017-11-03T00:24:46.103Z,2.23
2017-11-03T00:27:12.370Z,2.23
2017-11-03T00:29:38.578Z,2.21
2017-11-03T00:32:04.806Z,2.19
2017-11-03T00:34:31.079Z,2.26
2017-11-03T00:36:57.302Z,2.14
2017-11-03T00:39:23.522Z,2.15
2017-11-03T00:41:49.806Z,2.16
2017-11-03T00:44:16.025Z,2.15
2017-11-03T00:46:42.258Z,2.05
2017-11-03T00:49:08.521Z,2.05
2017-11-03T00:51:34.738Z,2.02
2017-11-03T00:54:00.962Z,2.01
2017-11-03T00:56:27.214Z,1.93
2017-11-03T00:58:53.442Z,1.92
2017-11-03T01:01:19.655Z,1.90
2017-11-03T01:03:45.905Z,1.97
2017-11-03T01:06:12.121Z,1.99
2017-11-03T01:08:38.337Z,1.93
2017-11-03T01:11:04.599Z,1.90
2017-11-03T01:13:30.817Z,1.87
2017-11-03T01:15:57.062Z,1.83
2017-11-03T01:18:23.346Z,1.84
2017-11-03T01:20:49.565Z,1.77
2017-11-03T01:23:15.778Z,1.77
2017-11-03T01:25:42.212Z,1.78
2017-11-03T01:28:08.439Z,1.73
2017-11-03T01:30:34.663Z,1.73
2017-11-03T01:33:00.928Z,1.68
2017-11-03T01:35:27.341Z,1.70
2017-11-03T01:37:53.557Z,1.72
2017-11-03T01:40:19.826Z,1.73
2017-11-03T01:42:46.065Z,1.70
2017-11-03T01:45:12.285Z,1.64
2017-11-03T01:47:38.692Z,1.67
2017-11-03T01:50:04.925Z,1.67
2017-11-03T01:52:31.140Z,1.61
2017-11-03T01:54:57.412Z,1.62
2017-11-03T01:57:23.628Z,1.60
2017-11-03T01:59:49.850Z,1.55
2017-11-03T02:02:16.120Z,1.55
2017-11-03T02:04:42.351Z,1.57
2017-11-03T02:07:08.584Z,1.53
2017-11-03T02:09:34.856Z,1.51
2017-11-03T02:12:01.084Z,1.51
2017-11-03T02:14:27.290Z,1.53
2017-11-03T02:16:53.552Z,1.54
2017-11-03T02:19:19.766Z,1.48
2017-11-03T02:21:45.973Z,1.52
2017-11-03T02:24:12.227Z,1.50
2017-11-03T02:26:38.816Z,1.48
2017-11-03T02:29:05.035Z,1.50
2017-11-03T02:31:31.318Z,1.50
2017-11-03T02:33:57.530Z,1.52
2017-11-03T02:36:23.746Z,1.54
2017-11-03T02:38:50.105Z,1.56
2017-11-03T02:41:16.339Z,1.57
2017-11-03T02:43:42.563Z,1.64
2017-11-03T02:46:08.830Z,1.56
2017-11-03T02:48:35.068Z,1.53
2017-11-03T02:51:01.287Z,1.61
2017-11-03T02:53:27.620Z,1.59
2017-11-03T02:55:53.858Z,1.58
2017-11-03T02:58:20.082Z,1.47
2017-11-03T03:00:46.344Z,1.48
2017-11-03T03:03:12.562Z,1.44
2017-11-03T03:05:38.765Z,1.35
2017-11-03T03:08:05.021Z,1.32
2017-11-03T03:10:31.234Z,1.30
2017-11-03T03:12:57.455Z,1.29
2017-11-03T03:15:23.701Z,1.28
2017-11-03T03:17:49.938Z,1.29
2017-11-03T03:20:16.300Z,1.31
2017-11-03T03:22:42.569Z,1.35
2017-11-03T03:25:08.804Z,1.37
2017-11-03T03:27:35.022Z,1.30
2017-11-03T03:30:01.417Z,1.30
2017-11-03T03:32:27.633Z,1.34
2017-11-03T03:34:53.864Z,1.40
2017-11-03T03:37:20.110Z,1.38
2017-11-03T03:39:46.340Z,1.29
2017-11-03T03:42:12.562Z,1.35
2017-11-03T03:44:38.817Z,1.40
2017-11-03T03:47:05.041Z,1.41
2017-11-03T03:49:31.264Z,1.40
2017-11-03T03:51:57.518Z,1.40
2017-11-03T03:54:23.742Z,1.45
2017-11-03T03:56:49.959Z,1.42
2017-11-03T03:59:16.217Z,1.39
2017-11-03T04:01:42.447Z,1.39
2017-11-03T04:04:08.660Z,1.36
2017-11-03T04:06:34.935Z,1.33
2017-11-03T04:09:01.170Z,1.37
2017-11-03T04:11:27.409Z,1.35
2017-11-03T04:13:53.724Z,1.35
2017-11-03T04:16:19.964Z,1.41
2017-11-03T04:18:46.200Z,1.55
2017-11-03T04:21:12.509Z,1.56
2017-11-03T04:23:38.861Z,1.57
2017-11-03T04:26:05.091Z,1.57
2017-11-03T04:28:31.364Z,1.57
2017-11-03T04:30:57.573Z,1.56
2017-11-03T04:33:23.789Z,1.59
2017-11-03T04:35:50.044Z,1.50
2017-11-03T04:38:16.258Z,1.48
2017-11-03T04:40:42.495Z,1.50
2017-11-03T04:43:08.783Z,1.60
2017-11-03T04:45:34.968Z,1.72
2017-11-03T04:48:01.181Z,1.75
2017-11-03T04:50:27.426Z,1.75
2017-11-03T04:52:53.660Z,1.78
2017-11-03T04:55:19.879Z,1.82
2017-11-03T04:57:46.140Z,1.86
2017-11-03T05:00:12.435Z,1.86
2017-11-03T05:02:38.655Z,1.90
2017-11-03T05:05:04.903Z,2.00
2017-11-03T05:07:31.125Z,2.04
2017-11-03T05:09:57.354Z,2.11
2017-11-03T05:12:23.622Z,2.22
2017-11-03T05:14:49.856Z,2.31
2017-11-03T05:17:16.072Z,2.35
2017-11-03T05:19:42.336Z,2.44
2017-11-03T05:22:08.587Z,2.54
2017-11-03T05:24:34.815Z,2.54
2017-11-03T05:27:01.087Z,2.65
2017-11-03T05:29:27.311Z,2.80
2017-11-03T05:31:53.546Z,2.93
2017-11-03T05:34:19.802Z,3.04
2017-11-03T05:36:46.021Z,3.20
2017-11-03T05:39:12.233Z,3.31
2017-11-03T05:41:38.485Z,3.45
2017-11-03T05:44:04.711Z,3.62
2017-11-03T05:46:30.944Z,3.85
2017-11-03T05:48:57.224Z,4.06
2017-11-03T05:51:23.453Z,4.54
2017-11-03T05:53:49.678Z,5.07
2017-11-03T05:56:15.953Z,5.27
2017-11-03T05:58:42.195Z,5.65
2017-11-03T06:01:08.434Z,6.25
2017-11-03T06:03:34.717Z,6.87
2017-11-03T06:06:00.970Z,7.41
2017-11-03T06:08:27.198Z,8.03
2017-11-03T06:10:53.474Z,8.34
2017-11-03T06:13:19.720Z,8.30
2017-11-03T06:15:45.964Z,8.25
2017-11-03T06:18:12.256Z,7.96
2017-11-03T06:20:38.491Z,8.27
2017-11-03T06:23:04.715Z,8.45
2017-11-03T06:25:30.976Z,8.51
2017-11-03T06:27:57.229Z,8.79
2017-11-03T06:30:23.475Z,9.13
2017-11-03T06:32:49.755Z,9.61
2017-11-03T06:35:15.950Z,10.14
2017-11-03T06:37:42.146Z,11.01
2017-11-03T06:40:08.345Z,11.79
2017-11-03T06:42:34.510Z,12.11
2017-11-03T06:45:00.701Z,12.44
2017-11-03T06:47:26.914Z,12.48
2017-11-03T06:49:53.095Z,12.61
2017-11-03T06:52:19.272Z,12.99
2017-11-03T06:54:45.502Z,12.86
2017-11-03T06:57:11.688Z,13.20
2017-11-03T06:59:37.862Z,13.42
2017-11-03T07:02:04.140Z,14.03
2017-11-03T07:04:30.329Z,13.98
2017-11-03T07:06:56.521Z,14.01
2017-11-03T07:09:22.745Z,13.94
2017-11-03T07:11:48.923Z,13.67
2017-11-03T07:14:15.103Z,13.78
2017-11-03T07:16:41.324Z,13.68
2017-11-03T07:19:07.497Z,13.60
2017-11-03T07:21:33.675Z,13.69
2017-11-03T07:23:59.906Z,13.88
2017-11-03T07:26:26.086Z,14.01
2017-11-03T07:28:52.257Z,14.16
2017-11-03T07:31:18.482Z,14.65
2017-11-03T07:33:44.659Z,14.28
2017-11-03T07:36:10.845Z,14.42
2017-11-03T07:38:37.095Z,13.85
2017-11-03T07:41:03.284Z,14.42
2017-11-03T07:43:29.458Z,14.69
2017-11-03T07:45:55.686Z,15.26
2017-11-03T07:48:21.943Z,15.34
2017-11-03T07:50:48.121Z,15.65
2017-11-03T07:53:14.348Z,15.55
2017-11-03T07:55:40.528Z,15.76
2017-11-03T07:58:06.749Z,15.96
2017-11-03T08:00:32.995Z,15.95
2017-11-03T08:02:59.155Z,16.12
2017-11-03T08:05:25.327Z,16.35
2017-11-03T08:07:51.540Z,16.41
2017-11-03T08:10:17.720Z,16.43
2017-11-03T08:12:43.894Z,16.53
2017-11-03T08:15:10.130Z,16.30
2017-11-03T08:17:36.322Z,16.34
2017-11-03T08:20:02.615Z,16.32
2017-11-03T08:22:28.845Z,16.28
2017-11-03T08:24:55.041Z,16.22
2017-11-03T08:27:21.230Z,16.24
2017-11-03T08:29:47.479Z,16.50
2017-11-03T08:32:13.696Z,16.48
2017-11-03T08:34:39.998Z,16.68
2017-11-03T08:37:06.250Z,16.59
2017-11-03T08:39:32.434Z,16.84
2017-11-03T08:41:58.616Z,17.03
2017-11-03T08:44:24.824Z,17.33
2017-11-03T08:46:51.010Z,17.17
2017-11-03T08:49:17.187Z,16.98
2017-11-03T08:51:43.411Z,16.80
2017-11-03T08:54:09.583Z,16.34
2017-11-03T08:56:35.772Z,16.36
2017-11-03T08:59:02.028Z,16.29
2017-11-03T09:01:28.201Z,16.20
2017-11-03T09:03:54.396Z,15.97
2017-11-03T09:06:20.635Z,15.75
2017-11-03T09:08:46.834Z,15.60
2017-11-03T09:11:13.030Z,15.60
2017-11-03T09:13:39.245Z,15.60
2017-11-03T09:16:05.434Z,15.40
2017-11-03T09:18:31.620Z,15.24
2017-11-03T09:20:57.898Z,15.32
2017-11-03T09:23:24.079Z,15.29
2017-11-03T09:25:50.256Z,15.57
2017-11-03T09:28:16.490Z,15.82
2017-11-03T09:30:42.680Z,16.05
2017-11-03T09:33:08.858Z,16.39
2017-11-03T09:35:35.069Z,16.68
2017-11-03T09:38:01.251Z,16.97
2017-11-03T09:40:27.410Z,17.31
2017-11-03T09:42:53.632Z,17.47
2017-11-03T09:45:19.807Z,17.72
2017-11-03T09:47:45.990Z,18.08
2017-11-03T09:50:12.457Z,18.46
2017-11-03T09:52:38.695Z,18.53
2017-11-03T09:55:04.878Z,18.54
2017-11-03T09:57:31.122Z,18.62
2017-11-03T09:59:57.317Z,18.89
2017-11-03T10:02:23.484Z,18.99
2017-11-03T10:04:49.695Z,19.06
2017-11-03T10:07:15.890Z,19.26
2017-11-03T10:09:42.081Z,19.36
2017-11-03T10:12:08.291Z,19.70
2017-11-03T10:14:34.471Z,19.99
2017-11-03T10:17:00.670Z,19.97
2017-11-03T10:19:26.898Z,20.20
2017-11-03T10:21:53.174Z,19.80
2017-11-03T10:24:19.358Z,20.07
2017-11-03T10:26:45.609Z,20.23
2017-11-03T10:29:11.798Z,20.27
2017-11-03T10:31:37.981Z,20.17
2017-11-03T10:34:04.205Z,20.04
2017-11-03T10:36:30.403Z,19.56
2017-11-03T10:38:56.598Z,18.64
2017-11-03T10:41:22.826Z,18.83
2017-11-03T10:43:49.019Z,18.86
2017-11-03T10:46:15.231Z,18.58
2017-11-03T10:48:41.443Z,18.65
2017-11-03T10:51:07.637Z,18.81
2017-11-03T10:53:33.838Z,18.95
2017-11-03T10:56:00.103Z,19.31
2017-11-03T10:58:26.344Z,19.29
2017-11-03T11:00:52.580Z,19.31
2017-11-03T11:03:18.863Z,19.60
2017-11-03T11:05:45.101Z,19.96
2017-11-03T11:08:11.333Z,20.21
2017-11-03T11:10:37.633Z,20.67
2017-11-03T11:13:03.877Z,20.95
2017-11-03T11:15:30.104Z,20.71
2017-11-03T11:17:56.393Z,20.64
2017-11-03T11:20:22.642Z,20.01
2017-11-03T11:22:48.880Z,19.94
2017-11-03T11:25:15.164Z,19.82
2017-11-03T11:27:41.408Z,19.96
2017-11-03T11:30:07.646Z,19.95
2017-11-03T11:32:33.903Z,19.92
2017-11-03T11:35:00.136Z,19.56
2017-11-03T11:37:26.378Z,19.57
2017-11-03T11:39:52.659Z,19.73
2017-11-03T11:42:18.906Z,19.70
2017-11-03T11:44:45.179Z,19.66
2017-11-03T11:47:11.448Z,19.37
2017-11-03T11:49:37.691Z,19.30
2017-11-03T11:52:03.935Z,19.41
2017-11-03T11:54:30.233Z,19.43
2017-11-03T11:56:56.473Z,19.30
2017-11-03T11:59:22.705Z,19.24
2017-11-03T12:01:48.990Z,19.20
2017-11-03T12:04:15.247Z,19.11
2017-11-03T12:06:41.445Z,18.88
2017-11-03T12:09:07.859Z,18.86
2017-11-03T12:11:34.062Z,18.65
2017-11-03T12:14:00.263Z,18.37
2017-11-03T12:16:26.548Z,18.39
2017-11-03T12:18:52.772Z,18.38
2017-11-03T12:21:19.021Z,18.45
2017-11-03T12:23:45.284Z,18.40
2017-11-03T12:26:11.522Z,18.29
2017-11-03T12:28:37.698Z,18.31
2017-11-03T12:31:03.933Z,18.13
2017-11-03T12:33:30.137Z,18.05
2017-11-03T12:35:56.324Z,18.05
2017-11-03T12:38:22.538Z,18.13
2017-11-03T12:40:48.724Z,18.12
2017-11-03T12:43:14.942Z,18.00
2017-11-03T12:45:41.168Z,17.92
2017-11-03T12:48:07.358Z,17.59
2017-11-03T12:50:33.550Z,17.46
2017-11-03T12:52:59.778Z,17.44
2017-11-03T12:55:25.969Z,17.48
2017-11-03T12:57:52.166Z,17.50
2017-11-03T13:00:18.400Z,17.53
2017-11-03T13:02:44.586Z,17.41
2017-11-03T13:05:10.751Z,17.50
2017-11-03T13:07:36.965Z,17.51
2017-11-03T13:10:03.149Z,17.51
2017-11-03T13:12:29.353Z,17.57
2017-11-03T13:14:55.668Z,17.62
2017-11-03T13:17:21.854Z,17.64
2017-11-03T13:19:48.046Z,17.53
2017-11-03T13:22:14.273Z,17.54
2017-11-03T13:24:40.456Z,17.59
2017-11-03T13:27:06.628Z,17.59
2017-11-03T13:29:32.861Z,17.60
2017-11-03T13:31:59.067Z,17.64
2017-11-03T13:34:25.279Z,17.70
2017-11-03T13:36:51.516Z,17.63
2017-11-03T13:39:17.905Z,17.54
2017-11-03T13:41:44.077Z,17.58
2017-11-03T13:44:10.313Z,17.63
2017-11-03T13:46:36.493Z,17.66
2017-11-03T13:49:02.662Z,17.62
2017-11-03T13:51:28.897Z,17.60
2017-11-03T13:53:55.078Z,17.59
2017-11-03T13:56:21.298Z,17.51
2017-11-03T13:58:47.510Z,17.48
2017-11-03T14:01:13.696Z,17.49
2017-11-03T14:03:39.863Z,17.55
2017-11-03T14:06:06.102Z,17.58
2017-11-03T14:08:32.281Z,17.61
2017-11-03T14:10:58.488Z,17.62
2017-11-03T14:13:24.714Z,17.58
2017-11-03T14:15:50.900Z,17.53
2017-11-03T14:18:17.081Z,17.47
2017-11-03T14:20:43.319Z,17.39
2017-11-03T14:23:09.510Z,17.30
2017-11-03T14:25:35.682Z,17.22
2017-11-03T14:28:01.912Z,17.12
2017-11-03T14:30:28.276Z,16.98
2017-11-03T14:32:54.467Z,16.80
2017-11-03T14:35:20.694Z,16.63
2017-11-03T14:37:46.898Z,16.52
2017-11-03T14:40:13.054Z,16.44
2017-11-03T14:42:39.270Z,16.34
2017-11-03T14:45:05.468Z,16.22
2017-11-03T14:47:31.700Z,16.12
2017-11-03T14:49:57.946Z,16.03
2017-11-03T14:52:24.115Z,15.95
2017-11-03T14:54:50.289Z,15.90
2017-11-03T14:57:16.524Z,15.84
2017-11-03T14:59:42.706Z,15.76
2017-11-03T15:02:08.897Z,15.65
2017-11-03T15:04:35.127Z,15.57
2017-11-03T15:07:01.328Z,15.48
2017-11-03T15:09:27.530Z,15.37
2017-11-03T15:11:53.748Z,15.27
2017-11-03T15:14:19.934Z,15.30
2017-11-03T15:16:46.140Z,15.24
2017-11-03T15:19:12.356Z,15.26
2017-11-03T15:21:38.525Z,15.23
2017-11-03T15:24:04.714Z,15.19
2017-11-03T15:26:31.000Z,15.12
2017-11-03T15:28:57.270Z,15.09
2017-11-03T15:31:23.461Z,15.02
2017-11-03T15:33:49.682Z,15.01
2017-11-03T15:36:15.875Z,14.99
2017-11-03T15:38:42.064Z,14.94
2017-11-03T15:41:08.315Z,14.91
2017-11-03T15:43:34.482Z,14.80
2017-11-03T15:46:00.657Z,14.78
2017-11-03T15:48:26.862Z,14.72
2017-11-03T15:50:53.103Z,14.71
2017-11-03T15:53:19.296Z,14.75
2017-11-03T15:55:45.525Z,14.70
2017-11-03T15:58:11.709Z,14.74
2017-11-03T16:00:37.900Z,14.73
2017-11-03T16:03:04.110Z,14.70
2017-11-03T16:05:30.313Z,14.62
2017-11-03T16:07:56.502Z,14.63
2017-11-03T16:10:22.770Z,14.60
2017-11-03T16:12:48.950Z,14.58
2017-11-03T16:15:15.150Z,14.49
2017-11-03T16:17:41.374Z,14.42
2017-11-03T16:20:07.611Z,14.35
2017-11-03T16:22:33.776Z,14.25
2017-11-03T16:25:00.012Z,14.19
2017-11-03T16:27:26.205Z,14.11
2017-11-03T16:29:52.397Z,14.03
2017-11-03T16:32:18.620Z,14.04
2017-11-03T16:34:44.809Z,13.97
2017-11-03T16:37:10.990Z,13.97
2017-11-03T16:39:37.204Z,13.97
2017-11-03T16:42:03.391Z,13.98
2017-11-03T16:44:29.562Z,14.00
2017-11-03T16:46:55.818Z,13.98
2017-11-03T16:49:21.985Z,14.02
2017-11-03T16:51:48.182Z,14.02
2017-11-03T16:54:14.406Z,14.02
2017-11-03T16:56:40.584Z,14.03
2017-11-03T16:59:06.755Z,14.06
2017-11-03T17:01:32.990Z,13.84
2017-11-03T17:03:59.173Z,13.95
2017-11-03T17:06:25.368Z,13.93
2017-11-03T17:08:51.595Z,13.94
2017-11-03T17:11:17.772Z,13.90
2017-11-03T17:13:43.972Z,13.88
2017-11-03T17:16:10.202Z,13.85
2017-11-03T17:18:36.395Z,13.77
2017-11-03T17:21:02.560Z,13.71
2017-11-03T17:23:28.837Z,13.64
2017-11-03T17:25:55.011Z,13.50
2017-11-03T17:28:21.200Z,13.45
2017-11-03T17:30:47.423Z,13.38
2017-11-03T17:33:13.592Z,13.34
2017-11-03T17:35:39.779Z,13.33
2017-11-03T17:38:06.010Z,13.28
2017-11-03T17:40:32.243Z,13.26
2017-11-03T17:42:58.420Z,13.26
2017-11-03T17:45:24.638Z,13.26
2017-11-03T17:47:50.840Z,13.28
2017-11-03T17:50:17.054Z,13.27
2017-11-03T17:52:43.271Z,13.27
2017-11-03T17:55:09.447Z,13.23
2017-11-03T17:57:35.612Z,13.20
2017-11-03T18:00:01.831Z,13.31
2017-11-03T18:02:28.000Z,13.32
2017-11-03T18:04:54.168Z,13.38
2017-11-03T18:07:20.398Z,13.37
2017-11-03T18:09:46.789Z,13.36
2017-11-03T18:12:13.025Z,13.40
2017-11-03T18:14:39.290Z,13.39
2017-11-03T18:17:05.519Z,13.43
2017-11-03T18:19:31.749Z,13.48
2017-11-03T18:21:58.033Z,13.51
2017-11-03T18:24:24.268Z,13.54
2017-11-03T18:26:50.506Z,13.61
2017-11-03T18:29:16.817Z,13.58
2017-11-03T18:31:43.055Z,13.38
2017-11-03T18:34:09.282Z,13.37
2017-11-03T18:36:35.526Z,13.39
2017-11-03T18:39:01.769Z,13.40
2017-11-03T18:41:28.001Z,13.37
2017-11-03T18:43:54.267Z,13.38
2017-11-03T18:46:20.497Z,13.34
2017-11-03T18:48:46.750Z,13.26
2017-11-03T18:51:13.021Z,13.25
2017-11-03T18:53:39.263Z,13.16
2017-11-03T18:56:05.471Z,13.21
2017-11-03T18:58:31.792Z,13.22
2017-11-03T19:00:58.036Z,13.15
2017-11-03T19:03:24.273Z,13.13
2017-11-03T19:05:50.560Z,13.15
2017-11-03T19:08:16.793Z,13.17
2017-11-03T19:10:43.031Z,13.20
2017-11-03T19:13:09.302Z,13.23
2017-11-03T19:15:35.534Z,13.26
2017-11-03T19:18:01.794Z,13.27
2017-11-03T19:20:28.058Z,13.25
2017-11-03T19:22:54.307Z,13.26
2017-11-03T19:25:20.545Z,13.21
2017-11-03T19:27:46.815Z,13.21
2017-11-03T19:30:13.046Z,13.15
2017-11-03T19:32:39.272Z,12.88
2017-11-03T19:35:05.519Z,12.80
2017-11-03T19:37:31.743Z,12.55
2017-11-03T19:39:57.975Z,12.50
2017-11-03T19:42:24.256Z,12.53
2017-11-03T19:44:50.471Z,12.61
2017-11-03T19:47:16.697Z,12.65
2017-11-03T19:49:42.959Z,12.69
2017-11-03T19:52:09.184Z,12.65
2017-11-03T19:54:35.419Z,12.64
2017-11-03T19:57:01.692Z,12.70
2017-11-03T19:59:28.097Z,12.76
2017-11-03T20:01:54.398Z,12.81
2017-11-03T20:04:20.665Z,12.94
2017-11-03T20:06:46.882Z,12.93
2017-11-03T20:09:13.093Z,12.80
2017-11-03T20:11:39.376Z,12.68
2017-11-03T20:14:05.601Z,12.64
2017-11-03T20:16:31.832Z,12.58
2017-11-03T20:18:58.108Z,12.48
2017-11-03T20:21:24.322Z,12.49
2017-11-03T20:23:50.531Z,12.40
2017-11-03T20:26:16.813Z,12.37
2017-11-03T20:28:43.039Z,12.35
2017-11-03T20:31:09.296Z,12.32
2017-11-03T20:33:35.566Z,12.45
2017-11-03T20:36:01.782Z,12.43
2017-11-03T20:38:28.046Z,12.46
2017-11-03T20:40:54.300Z,12.54
2017-11-03T20:43:20.532Z,12.55
2017-11-03T20:45:46.749Z,12.59
2017-11-03T20:48:13.028Z,12.48
2017-11-03T20:50:39.267Z,12.52
2017-11-03T20:53:05.498Z,12.49
2017-11-03T20:55:31.761Z,12.72
2017-11-03T20:57:57.988Z,12.64
2017-11-03T21:00:24.230Z,12.55
2017-11-03T21:02:50.515Z,12.48
2017-11-03T21:05:16.752Z,12.42
2017-11-03T21:07:42.975Z,12.30
2017-11-03T21:10:09.230Z,12.21
2017-11-03T21:12:35.642Z,12.11
2017-11-03T21:15:01.872Z,12.12
2017-11-03T21:17:28.146Z,12.10
2017-11-03T21:19:54.441Z,12.07
2017-11-03T21:22:20.717Z,12.05
2017-11-03T21:24:47.014Z,11.96
2017-11-03T21:27:13.499Z,11.92
2017-11-03T21:29:39.834Z,11.89
2017-11-03T21:32:06.144Z,11.90
2017-11-03T21:34:32.417Z,11.86
2017-11-03T21:36:58.640Z,11.86
2017-11-03T21:39:24.924Z,11.85
2017-11-03T21:41:51.167Z,11.81
2017-11-03T21:44:17.397Z,11.72
2017-11-03T21:46:43.662Z,11.67
2017-11-03T21:49:09.877Z,11.58
2017-11-03T21:51:36.110Z,11.53
2017-11-03T21:54:02.396Z,11.48
2017-11-03T21:56:28.613Z,11.49
2017-11-03T21:58:54.857Z,11.45
2017-11-03T22:01:21.158Z,11.38
2017-11-03T22:03:47.597Z,11.39
2017-11-03T22:06:13.805Z,11.15
2017-11-03T22:08:40.060Z,11.05
2017-11-03T22:11:06.283Z,11.00
2017-11-03T22:13:32.697Z,11.05
2017-11-03T22:15:58.953Z,11.10
2017-11-03T22:18:25.163Z,11.09
2017-11-03T22:20:51.393Z,11.11
2017-11-03T22:23:17.658Z,11.13
2017-11-03T22:25:43.883Z,11.13
2017-11-03T22:28:10.102Z,11.14
2017-11-03T22:30:36.381Z,11.11
2017-11-03T22:33:02.602Z,11.17
2017-11-03T22:35:28.834Z,11.14
2017-11-03T22:37:55.152Z,11.14
2017-11-03T22:40:21.422Z,11.15
2017-11-03T22:42:47.648Z,11.19
2017-11-03T22:45:13.889Z,11.19
2017-11-03T22:47:40.120Z,11.25
2017-11-03T22:50:06.349Z,11.29
2017-11-03T22:52:32.616Z,11.33
2017-11-03T22:54:58.847Z,11.36
2017-11-03T22:57:25.077Z,11.39
2017-11-03T22:59:51.346Z,11.40
2017-11-03T23:02:17.569Z,11.37
2017-11-03T23:04:43.783Z,11.36
2017-11-03T23:07:10.054Z,11.37
2017-11-03T23:09:36.335Z,11.33
2017-11-03T23:12:02.568Z,11.34
2017-11-03T23:14:28.818Z,11.36
2017-11-03T23:16:55.041Z,11.35
2017-11-03T23:19:21.264Z,11.31
2017-11-03T23:21:47.548Z,11.20
2017-11-03T23:24:13.777Z,11.22
2017-11-03T23:26:40.013Z,11.17
2017-11-03T23:29:06.270Z,11.21
2017-11-03T23:31:32.501Z,11.20
2017-11-03T23:33:58.730Z,11.17
2017-11-03T23:36:24.984Z,11.14
2017-11-03T23:38:51.228Z,11.18
2017-11-03T23:41:17.459Z,11.23
2017-11-03T23:43:43.736Z,11.26
2017-11-03T23:46:09.969Z,11.23
2017-11-03T23:48:36.194Z,11.24
2017-11-03T23:51:02.467Z,11.22
2017-11-03T23:53:28.700Z,11.24
2017-11-03T23:55:54.923Z,11.26
2017-11-03T23:58:21.183Z,11.24
